sensor_id;sensor_type;location;lat;lon;timestamp;P1;durP1;ratioP1;P2;durP2;ratioP2
2638;SDS011;1329;51.384;7.122;2023-03-14T00:01:56;3.03;;;1.77;;
2638;SDS011;1329;51.384;7.122;2023-03-14T00:04:26;2.63;;;1.50;;
2638;SDS011;1329;51.384;7.122;2023-03-14T00:06:53;3.63;;;1.60;;
2638;SDS011;1329;51.384;7.122;2023-03-14T00:09:27;5.07;;;1.70;;
2638;SDS011;1329;51.384;7.122;2023-03-14T00:11:56;3.17;;;1.53;;
2638;SDS011;1329;51.384;7.122;2023-03-14T00:14:28;5.70;;;2.20;;
2638;SDS011;1329;51.384;7.122;2023-03-14T00:17:02;2.97;;;1.63;;
2638;SDS011;1329;51.384;7.122;2023-03-14T00:19:34;3.50;;;1.70;;
2638;SDS011;1329;51.384;7.122;2023-03-14T00:22:04;3.53;;;1.70;;
2638;SDS011;1329;51.384;7.122;2023-03-14T00:24:32;2.93;;;1.50;;
2638;SDS011;1329;51.384;7.122;2023-03-14T00:27:06;2.37;;;1.50;;
2638;SDS011;1329;51.384;7.122;2023-03-14T00:29:35;4.33;;;2.10;;
2638;SDS011;1329;51.384;7.122;2023-03-14T00:32:14;4.97;;;1.97;;
2638;SDS011;1329;51.384;7.122;2023-03-14T00:34:49;3.80;;;1.63;;
2638;SDS011;1329;51.384;7.122;2023-03-14T00:37:16;4.73;;;1.83;;
2638;SDS011;1329;51.384;7.122;2023-03-14T00:39:51;3.83;;;1.80;;
2638;SDS011;1329;51.384;7.122;2023-03-14T00:42:24;3.87;;;2.07;;
2638;SDS011;1329;51.384;7.122;2023-03-14T00:44:52;4.40;;;1.80;;
2638;SDS011;1329;51.384;7.122;2023-03-14T00:47:24;4.10;;;1.80;;
2638;SDS011;1329;51.384;7.122;2023-03-14T00:50:06;7.03;;;2.13;;
2638;SDS011;1329;51.384;7.122;2023-03-14T00:52:46;3.37;;;1.80;;
2638;SDS011;1329;51.384;7.122;2023-03-14T00:55:17;3.47;;;1.73;;
2638;SDS011;1329;51.384;7.122;2023-03-14T00:57:48;4.80;;;2.10;;
2638;SDS011;1329;51.384;7.122;2023-03-14T01:00:16;8.63;;;2.53;;
2638;SDS011;1329;51.384;7.122;2023-03-14T01:02:57;4.63;;;2.20;;
2638;SDS011;1329;51.384;7.122;2023-03-14T01:05:34;3.37;;;1.40;;
2638;SDS011;1329;51.384;7.122;2023-03-14T01:08:11;3.13;;;1.40;;
2638;SDS011;1329;51.384;7.122;2023-03-14T01:10:49;3.33;;;1.57;;
2638;SDS011;1329;51.384;7.122;2023-03-14T01:13:21;2.13;;;1.23;;
2638;SDS011;1329;51.384;7.122;2023-03-14T01:15:53;2.07;;;1.53;;
2638;SDS011;1329;51.384;7.122;2023-03-14T01:18:41;3.17;;;1.40;;
2638;SDS011;1329;51.384;7.122;2023-03-14T01:21:16;3.30;;;1.53;;
2638;SDS011;1329;51.384;7.122;2023-03-14T01:23:47;3.53;;;1.50;;
2638;SDS011;1329;51.384;7.122;2023-03-14T01:26:20;2.17;;;1.20;;
2638;SDS011;1329;51.384;7.122;2023-03-14T01:28:58;2.33;;;1.13;;
2638;SDS011;1329;51.384;7.122;2023-03-14T01:31:29;3.00;;;1.40;;
2638;SDS011;1329;51.384;7.122;2023-03-14T01:34:04;4.03;;;1.83;;
2638;SDS011;1329;51.384;7.122;2023-03-14T01:36:35;3.50;;;1.23;;
2638;SDS011;1329;51.384;7.122;2023-03-14T01:39:03;2.43;;;1.27;;
2638;SDS011;1329;51.384;7.122;2023-03-14T01:41:39;3.83;;;1.60;;
2638;SDS011;1329;51.384;7.122;2023-03-14T01:44:09;3.77;;;1.50;;
2638;SDS011;1329;51.384;7.122;2023-03-14T01:46:42;3.63;;;1.60;;
2638;SDS011;1329;51.384;7.122;2023-03-14T01:49:22;6.00;;;1.60;;
2638;SDS011;1329;51.384;7.122;2023-03-14T01:52:03;3.00;;;1.20;;
2638;SDS011;1329;51.384;7.122;2023-03-14T01:54:34;3.00;;;1.40;;
2638;SDS011;1329;51.384;7.122;2023-03-14T01:57:06;4.60;;;1.47;;
2638;SDS011;1329;51.384;7.122;2023-03-14T01:59:40;5.77;;;1.30;;
2638;SDS011;1329;51.384;7.122;2023-03-14T02:02:16;5.33;;;1.70;;
2638;SDS011;1329;51.384;7.122;2023-03-14T02:04:48;3.13;;;1.10;;
2638;SDS011;1329;51.384;7.122;2023-03-14T02:07:16;2.90;;;1.23;;
2638;SDS011;1329;51.384;7.122;2023-03-14T02:09:47;4.53;;;1.80;;
2638;SDS011;1329;51.384;7.122;2023-03-14T02:12:19;2.83;;;1.37;;
2638;SDS011;1329;51.384;7.122;2023-03-14T02:14:47;4.87;;;1.50;;
2638;SDS011;1329;51.384;7.122;2023-03-14T02:17:15;3.33;;;1.53;;
2638;SDS011;1329;51.384;7.122;2023-03-14T02:19:52;3.10;;;1.63;;
2638;SDS011;1329;51.384;7.122;2023-03-14T02:22:35;3.93;;;1.70;;
2638;SDS011;1329;51.384;7.122;2023-03-14T02:25:05;4.83;;;1.70;;
2638;SDS011;1329;51.384;7.122;2023-03-14T02:27:39;3.70;;;1.60;;
2638;SDS011;1329;51.384;7.122;2023-03-14T02:30:08;3.40;;;1.40;;
2638;SDS011;1329;51.384;7.122;2023-03-14T02:32:39;3.27;;;1.73;;
2638;SDS011;1329;51.384;7.122;2023-03-14T02:35:11;4.00;;;1.60;;
2638;SDS011;1329;51.384;7.122;2023-03-14T02:37:42;4.63;;;1.90;;
2638;SDS011;1329;51.384;7.122;2023-03-14T02:40:15;5.03;;;1.93;;
2638;SDS011;1329;51.384;7.122;2023-03-14T02:42:44;7.20;;;2.30;;
2638;SDS011;1329;51.384;7.122;2023-03-14T02:48:05;6.53;;;1.70;;
2638;SDS011;1329;51.384;7.122;2023-03-14T02:50:37;5.50;;;2.17;;
2638;SDS011;1329;51.384;7.122;2023-03-14T02:53:05;6.43;;;1.50;;
2638;SDS011;1329;51.384;7.122;2023-03-14T02:55:32;5.07;;;1.80;;
2638;SDS011;1329;51.384;7.122;2023-03-14T02:58:01;3.53;;;1.80;;
2638;SDS011;1329;51.384;7.122;2023-03-14T03:00:28;3.60;;;1.70;;
2638;SDS011;1329;51.384;7.122;2023-03-14T03:02:56;4.20;;;1.83;;
2638;SDS011;1329;51.384;7.122;2023-03-14T03:05:24;5.90;;;1.63;;
2638;SDS011;1329;51.384;7.122;2023-03-14T03:07:51;5.93;;;1.83;;
2638;SDS011;1329;51.384;7.122;2023-03-14T03:10:18;7.90;;;1.80;;
2638;SDS011;1329;51.384;7.122;2023-03-14T03:12:46;3.27;;;1.50;;
2638;SDS011;1329;51.384;7.122;2023-03-14T03:15:15;5.20;;;1.50;;
2638;SDS011;1329;51.384;7.122;2023-03-14T03:17:42;2.77;;;1.40;;
2638;SDS011;1329;51.384;7.122;2023-03-14T03:20:10;4.90;;;1.40;;
2638;SDS011;1329;51.384;7.122;2023-03-14T03:22:41;4.60;;;1.50;;
2638;SDS011;1329;51.384;7.122;2023-03-14T03:25:10;3.37;;;1.53;;
2638;SDS011;1329;51.384;7.122;2023-03-14T03:27:37;4.93;;;1.67;;
2638;SDS011;1329;51.384;7.122;2023-03-14T03:30:05;6.97;;;1.73;;
2638;SDS011;1329;51.384;7.122;2023-03-14T03:32:35;3.70;;;1.70;;
2638;SDS011;1329;51.384;7.122;2023-03-14T03:35:03;3.90;;;1.47;;
2638;SDS011;1329;51.384;7.122;2023-03-14T03:37:32;5.10;;;1.60;;
2638;SDS011;1329;51.384;7.122;2023-03-14T03:40:00;4.87;;;1.80;;
2638;SDS011;1329;51.384;7.122;2023-03-14T03:42:32;4.37;;;1.57;;
2638;SDS011;1329;51.384;7.122;2023-03-14T03:45:01;4.53;;;1.40;;
2638;SDS011;1329;51.384;7.122;2023-03-14T03:47:30;4.17;;;1.60;;
2638;SDS011;1329;51.384;7.122;2023-03-14T03:49:59;3.67;;;1.70;;
2638;SDS011;1329;51.384;7.122;2023-03-14T03:52:28;3.23;;;1.43;;
2638;SDS011;1329;51.384;7.122;2023-03-14T03:54:59;2.80;;;1.23;;
2638;SDS011;1329;51.384;7.122;2023-03-14T03:57:36;5.57;;;1.47;;
2638;SDS011;1329;51.384;7.122;2023-03-14T04:00:04;5.67;;;1.40;;
2638;SDS011;1329;51.384;7.122;2023-03-14T04:02:37;2.73;;;1.30;;
2638;SDS011;1329;51.384;7.122;2023-03-14T04:05:10;3.13;;;1.40;;
2638;SDS011;1329;51.384;7.122;2023-03-14T04:07:56;3.60;;;1.37;;
2638;SDS011;1329;51.384;7.122;2023-03-14T04:10:30;3.27;;;1.57;;
2638;SDS011;1329;51.384;7.122;2023-03-14T04:13:03;3.80;;;1.70;;
2638;SDS011;1329;51.384;7.122;2023-03-14T04:15:38;3.47;;;1.30;;
2638;SDS011;1329;51.384;7.122;2023-03-14T04:18:05;3.63;;;1.33;;
2638;SDS011;1329;51.384;7.122;2023-03-14T04:20:35;4.53;;;1.07;;
2638;SDS011;1329;51.384;7.122;2023-03-14T04:23:03;2.50;;;1.10;;
2638;SDS011;1329;51.384;7.122;2023-03-14T04:25:41;1.97;;;0.93;;
2638;SDS011;1329;51.384;7.122;2023-03-14T04:28:08;2.83;;;1.13;;
2638;SDS011;1329;51.384;7.122;2023-03-14T04:30:39;3.53;;;1.20;;
2638;SDS011;1329;51.384;7.122;2023-03-14T04:33:12;2.67;;;1.20;;
2638;SDS011;1329;51.384;7.122;2023-03-14T04:35:45;2.10;;;1.13;;
2638;SDS011;1329;51.384;7.122;2023-03-14T04:38:12;3.27;;;1.20;;
2638;SDS011;1329;51.384;7.122;2023-03-14T04:40:49;3.80;;;1.33;;
2638;SDS011;1329;51.384;7.122;2023-03-14T04:43:25;3.07;;;1.30;;
2638;SDS011;1329;51.384;7.122;2023-03-14T04:46:07;2.37;;;1.10;;
2638;SDS011;1329;51.384;7.122;2023-03-14T04:48:38;3.43;;;1.43;;
2638;SDS011;1329;51.384;7.122;2023-03-14T04:51:09;2.57;;;1.10;;
2638;SDS011;1329;51.384;7.122;2023-03-14T04:53:39;2.27;;;1.53;;
2638;SDS011;1329;51.384;7.122;2023-03-14T04:56:07;3.47;;;1.70;;
2638;SDS011;1329;51.384;7.122;2023-03-14T04:58:38;4.40;;;1.43;;
2638;SDS011;1329;51.384;7.122;2023-03-14T05:01:09;2.00;;;1.20;;
2638;SDS011;1329;51.384;7.122;2023-03-14T05:03:36;2.30;;;1.00;;
2638;SDS011;1329;51.384;7.122;2023-03-14T05:06:05;1.03;;;0.70;;
2638;SDS011;1329;51.384;7.122;2023-03-14T05:08:33;0.83;;;0.57;;
2638;SDS011;1329;51.384;7.122;2023-03-14T05:11:01;0.80;;;0.60;;
2638;SDS011;1329;51.384;7.122;2023-03-14T05:13:29;1.27;;;0.50;;
2638;SDS011;1329;51.384;7.122;2023-03-14T05:16:02;0.93;;;0.57;;
2638;SDS011;1329;51.384;7.122;2023-03-14T05:18:31;1.83;;;0.47;;
2638;SDS011;1329;51.384;7.122;2023-03-14T05:21:00;0.40;;;0.40;;
2638;SDS011;1329;51.384;7.122;2023-03-14T05:23:29;0.60;;;0.60;;
2638;SDS011;1329;51.384;7.122;2023-03-14T05:26:09;0.93;;;0.50;;
2638;SDS011;1329;51.384;7.122;2023-03-14T05:28:51;0.60;;;0.60;;
2638;SDS011;1329;51.384;7.122;2023-03-14T05:31:18;0.87;;;0.70;;
2638;SDS011;1329;51.384;7.122;2023-03-14T05:33:53;0.67;;;0.67;;
2638;SDS011;1329;51.384;7.122;2023-03-14T05:36:38;0.70;;;0.70;;
2638;SDS011;1329;51.384;7.122;2023-03-14T05:39:09;1.50;;;1.40;;
2638;SDS011;1329;51.384;7.122;2023-03-14T05:41:55;2.90;;;2.20;;
2638;SDS011;1329;51.384;7.122;2023-03-14T05:44:35;4.13;;;2.83;;
2638;SDS011;1329;51.384;7.122;2023-03-14T05:47:07;4.43;;;3.20;;
2638;SDS011;1329;51.384;7.122;2023-03-14T05:49:34;4.30;;;2.60;;
2638;SDS011;1329;51.384;7.122;2023-03-14T05:52:01;3.73;;;2.50;;
2638;SDS011;1329;51.384;7.122;2023-03-14T05:54:33;3.00;;;2.20;;
2638;SDS011;1329;51.384;7.122;2023-03-14T05:57:02;3.33;;;1.83;;
2638;SDS011;1329;51.384;7.122;2023-03-14T05:59:30;3.83;;;1.90;;
2638;SDS011;1329;51.384;7.122;2023-03-14T06:01:59;3.13;;;1.60;;
2638;SDS011;1329;51.384;7.122;2023-03-14T06:04:34;1.70;;;1.20;;
2638;SDS011;1329;51.384;7.122;2023-03-14T06:07:01;2.53;;;1.37;;
2638;SDS011;1329;51.384;7.122;2023-03-14T06:09:29;3.20;;;1.40;;
2638;SDS011;1329;51.384;7.122;2023-03-14T06:12:00;2.17;;;1.30;;
2638;SDS011;1329;51.384;7.122;2023-03-14T06:14:32;2.10;;;1.10;;
2638;SDS011;1329;51.384;7.122;2023-03-14T06:16:59;2.80;;;1.30;;
2638;SDS011;1329;51.384;7.122;2023-03-14T06:19:35;3.40;;;1.20;;
2638;SDS011;1329;51.384;7.122;2023-03-14T06:22:05;2.83;;;1.23;;
2638;SDS011;1329;51.384;7.122;2023-03-14T06:24:33;2.87;;;1.20;;
2638;SDS011;1329;51.384;7.122;2023-03-14T06:27:02;1.60;;;1.20;;
2638;SDS011;1329;51.384;7.122;2023-03-14T06:29:29;2.67;;;1.20;;
2638;SDS011;1329;51.384;7.122;2023-03-14T06:31:58;2.47;;;1.50;;
2638;SDS011;1329;51.384;7.122;2023-03-14T06:34:26;1.73;;;1.13;;
2638;SDS011;1329;51.384;7.122;2023-03-14T06:36:54;1.80;;;1.20;;
2638;SDS011;1329;51.384;7.122;2023-03-14T06:39:21;1.20;;;1.10;;
2638;SDS011;1329;51.384;7.122;2023-03-14T06:41:49;2.30;;;1.00;;
2638;SDS011;1329;51.384;7.122;2023-03-14T06:44:27;2.80;;;1.20;;
2638;SDS011;1329;51.384;7.122;2023-03-14T06:46:58;1.67;;;1.00;;
2638;SDS011;1329;51.384;7.122;2023-03-14T06:49:26;1.17;;;1.00;;
2638;SDS011;1329;51.384;7.122;2023-03-14T06:51:54;1.83;;;1.17;;
2638;SDS011;1329;51.384;7.122;2023-03-14T06:54:24;2.37;;;1.10;;
2638;SDS011;1329;51.384;7.122;2023-03-14T06:56:51;1.50;;;1.20;;
2638;SDS011;1329;51.384;7.122;2023-03-14T06:59:19;2.13;;;1.77;;
2638;SDS011;1329;51.384;7.122;2023-03-14T07:01:47;1.67;;;1.30;;
2638;SDS011;1329;51.384;7.122;2023-03-14T07:04:16;1.23;;;1.10;;
2638;SDS011;1329;51.384;7.122;2023-03-14T07:06:44;2.73;;;1.33;;
2638;SDS011;1329;51.384;7.122;2023-03-14T07:09:14;1.30;;;1.20;;
2638;SDS011;1329;51.384;7.122;2023-03-14T07:11:43;1.37;;;1.20;;
2638;SDS011;1329;51.384;7.122;2023-03-14T07:14:11;2.07;;;1.03;;
2638;SDS011;1329;51.384;7.122;2023-03-14T07:16:38;1.20;;;1.10;;
2638;SDS011;1329;51.384;7.122;2023-03-14T07:19:07;1.43;;;0.97;;
2638;SDS011;1329;51.384;7.122;2023-03-14T07:21:35;1.00;;;1.00;;
2638;SDS011;1329;51.384;7.122;2023-03-14T07:24:05;1.00;;;1.00;;
2638;SDS011;1329;51.384;7.122;2023-03-14T07:26:40;1.10;;;0.97;;
2638;SDS011;1329;51.384;7.122;2023-03-14T07:29:09;0.80;;;0.80;;
2638;SDS011;1329;51.384;7.122;2023-03-14T07:31:37;1.13;;;1.00;;
2638;SDS011;1329;51.384;7.122;2023-03-14T07:34:04;1.20;;;1.00;;
2638;SDS011;1329;51.384;7.122;2023-03-14T07:36:35;2.17;;;1.40;;
2638;SDS011;1329;51.384;7.122;2023-03-14T07:39:05;1.30;;;1.20;;
2638;SDS011;1329;51.384;7.122;2023-03-14T07:41:38;1.40;;;1.30;;
2638;SDS011;1329;51.384;7.122;2023-03-14T07:44:06;1.60;;;1.50;;
2638;SDS011;1329;51.384;7.122;2023-03-14T07:46:33;1.40;;;1.30;;
2638;SDS011;1329;51.384;7.122;2023-03-14T07:49:02;1.47;;;1.37;;
2638;SDS011;1329;51.384;7.122;2023-03-14T07:51:35;2.00;;;1.60;;
2638;SDS011;1329;51.384;7.122;2023-03-14T07:54:06;1.67;;;1.50;;
2638;SDS011;1329;51.384;7.122;2023-03-14T07:56:34;1.90;;;1.80;;
2638;SDS011;1329;51.384;7.122;2023-03-14T07:59:01;2.30;;;2.10;;
2638;SDS011;1329;51.384;7.122;2023-03-14T08:01:34;1.77;;;1.67;;
2638;SDS011;1329;51.384;7.122;2023-03-14T08:04:02;1.90;;;1.80;;
2638;SDS011;1329;51.384;7.122;2023-03-14T08:06:30;2.40;;;1.80;;
2638;SDS011;1329;51.384;7.122;2023-03-14T08:09:09;1.90;;;1.80;;
2638;SDS011;1329;51.384;7.122;2023-03-14T08:11:37;2.03;;;1.80;;
2638;SDS011;1329;51.384;7.122;2023-03-14T08:14:08;3.00;;;1.90;;
2638;SDS011;1329;51.384;7.122;2023-03-14T08:16:38;1.77;;;1.67;;
2638;SDS011;1329;51.384;7.122;2023-03-14T08:19:06;1.70;;;1.60;;
2638;SDS011;1329;51.384;7.122;2023-03-14T08:21:36;1.60;;;1.30;;
2638;SDS011;1329;51.384;7.122;2023-03-14T08:24:03;1.60;;;1.40;;
2638;SDS011;1329;51.384;7.122;2023-03-14T08:26:31;1.10;;;1.10;;
2638;SDS011;1329;51.384;7.122;2023-03-14T08:28:59;1.87;;;1.20;;
2638;SDS011;1329;51.384;7.122;2023-03-14T08:31:33;1.30;;;1.20;;
2638;SDS011;1329;51.384;7.122;2023-03-14T08:34:02;1.03;;;1.03;;
2638;SDS011;1329;51.384;7.122;2023-03-14T08:36:32;1.20;;;1.03;;
2638;SDS011;1329;51.384;7.122;2023-03-14T08:39:05;1.07;;;1.00;;
2638;SDS011;1329;51.384;7.122;2023-03-14T08:41:36;1.10;;;1.00;;
2638;SDS011;1329;51.384;7.122;2023-03-14T08:44:06;1.37;;;1.00;;
2638;SDS011;1329;51.384;7.122;2023-03-14T08:46:41;1.20;;;1.10;;
2638;SDS011;1329;51.384;7.122;2023-03-14T08:49:08;1.10;;;1.10;;
2638;SDS011;1329;51.384;7.122;2023-03-14T08:51:39;1.48;;;1.25;;
2638;SDS011;1329;51.384;7.122;2023-03-14T08:54:11;1.40;;;1.30;;
2638;SDS011;1329;51.384;7.122;2023-03-14T08:56:39;3.83;;;1.40;;
2638;SDS011;1329;51.384;7.122;2023-03-14T08:59:09;1.30;;;1.20;;
2638;SDS011;1329;51.384;7.122;2023-03-14T09:01:39;1.23;;;1.13;;
2638;SDS011;1329;51.384;7.122;2023-03-14T09:04:08;1.38;;;1.27;;
2638;SDS011;1329;51.384;7.122;2023-03-14T09:06:35;1.23;;;1.13;;
2638;SDS011;1329;51.384;7.122;2023-03-14T09:09:04;2.10;;;1.23;;
2638;SDS011;1329;51.384;7.122;2023-03-14T09:11:35;1.90;;;1.20;;
2638;SDS011;1329;51.384;7.122;2023-03-14T09:14:03;1.13;;;1.07;;
2638;SDS011;1329;51.384;7.122;2023-03-14T09:16:33;1.17;;;1.10;;
2638;SDS011;1329;51.384;7.122;2023-03-14T09:19:00;1.77;;;1.30;;
2638;SDS011;1329;51.384;7.122;2023-03-14T09:21:35;2.43;;;1.00;;
2638;SDS011;1329;51.384;7.122;2023-03-14T09:24:04;1.30;;;1.20;;
2638;SDS011;1329;51.384;7.122;2023-03-14T09:26:33;0.97;;;0.90;;
2638;SDS011;1329;51.384;7.122;2023-03-14T09:29:00;2.43;;;1.00;;
2638;SDS011;1329;51.384;7.122;2023-03-14T09:31:31;0.90;;;0.90;;
2638;SDS011;1329;51.384;7.122;2023-03-14T09:34:03;2.07;;;1.10;;
2638;SDS011;1329;51.384;7.122;2023-03-14T09:36:33;1.53;;;1.20;;
2638;SDS011;1329;51.384;7.122;2023-03-14T09:39:03;1.03;;;0.93;;
2638;SDS011;1329;51.384;7.122;2023-03-14T09:41:32;0.73;;;0.60;;
2638;SDS011;1329;51.384;7.122;2023-03-14T09:44:06;0.50;;;0.50;;
2638;SDS011;1329;51.384;7.122;2023-03-14T09:46:48;1.00;;;0.60;;
2638;SDS011;1329;51.384;7.122;2023-03-14T09:49:30;0.63;;;0.50;;
2638;SDS011;1329;51.384;7.122;2023-03-14T09:52:05;0.50;;;0.50;;
2638;SDS011;1329;51.384;7.122;2023-03-14T09:54:42;0.80;;;0.67;;
2638;SDS011;1329;51.384;7.122;2023-03-14T09:57:16;0.70;;;0.70;;
2638;SDS011;1329;51.384;7.122;2023-03-14T09:59:50;0.83;;;0.63;;
2638;SDS011;1329;51.384;7.122;2023-03-14T10:02:21;1.00;;;0.90;;
2638;SDS011;1329;51.384;7.122;2023-03-14T10:04:51;1.10;;;1.00;;
2638;SDS011;1329;51.384;7.122;2023-03-14T10:07:21;1.13;;;1.10;;
2638;SDS011;1329;51.384;7.122;2023-03-14T10:09:55;1.40;;;1.30;;
2638;SDS011;1329;51.384;7.122;2023-03-14T10:12:32;1.40;;;1.30;;
2638;SDS011;1329;51.384;7.122;2023-03-14T10:15:05;1.23;;;1.17;;
2638;SDS011;1329;51.384;7.122;2023-03-14T10:17:40;1.97;;;1.87;;
2638;SDS011;1329;51.384;7.122;2023-03-14T10:20:25;2.40;;;2.20;;
2638;SDS011;1329;51.384;7.122;2023-03-14T10:23:04;2.50;;;2.30;;
2638;SDS011;1329;51.384;7.122;2023-03-14T10:25:46;3.17;;;2.27;;
2638;SDS011;1329;51.384;7.122;2023-03-14T10:28:28;2.70;;;2.50;;
2638;SDS011;1329;51.384;7.122;2023-03-14T10:30:59;3.07;;;2.80;;
2638;SDS011;1329;51.384;7.122;2023-03-14T10:33:28;2.40;;;2.20;;
2638;SDS011;1329;51.384;7.122;2023-03-14T10:35:58;2.70;;;2.50;;
2638;SDS011;1329;51.384;7.122;2023-03-14T10:38:30;2.70;;;2.50;;
2638;SDS011;1329;51.384;7.122;2023-03-14T10:41:00;2.97;;;2.77;;
2638;SDS011;1329;51.384;7.122;2023-03-14T10:43:34;3.17;;;2.70;;
2638;SDS011;1329;51.384;7.122;2023-03-14T10:46:06;3.13;;;2.77;;
2638;SDS011;1329;51.384;7.122;2023-03-14T10:48:40;3.43;;;3.03;;
2638;SDS011;1329;51.384;7.122;2023-03-14T10:51:18;2.90;;;2.70;;
2638;SDS011;1329;51.384;7.122;2023-03-14T10:53:55;2.20;;;2.00;;
2638;SDS011;1329;51.384;7.122;2023-03-14T10:56:33;2.23;;;1.67;;
2638;SDS011;1329;51.384;7.122;2023-03-14T10:59:06;1.23;;;1.17;;
2638;SDS011;1329;51.384;7.122;2023-03-14T11:01:40;1.20;;;1.10;;
2638;SDS011;1329;51.384;7.122;2023-03-14T11:04:18;0.90;;;0.90;;
2638;SDS011;1329;51.384;7.122;2023-03-14T11:07:15;1.30;;;0.97;;
2638;SDS011;1329;51.384;7.122;2023-03-14T11:09:52;1.20;;;1.00;;
2638;SDS011;1329;51.384;7.122;2023-03-14T11:12:33;1.50;;;1.13;;
2638;SDS011;1329;51.384;7.122;2023-03-14T11:15:14;1.10;;;1.00;;
2638;SDS011;1329;51.384;7.122;2023-03-14T11:17:50;1.70;;;1.30;;
2638;SDS011;1329;51.384;7.122;2023-03-14T11:20:40;1.90;;;1.10;;
2638;SDS011;1329;51.384;7.122;2023-03-14T11:23:16;1.57;;;1.20;;
2638;SDS011;1329;51.384;7.122;2023-03-14T11:25:54;1.87;;;1.20;;
2638;SDS011;1329;51.384;7.122;2023-03-14T11:28:44;1.53;;;1.40;;
2638;SDS011;1329;51.384;7.122;2023-03-14T11:31:24;1.57;;;1.33;;
2638;SDS011;1329;51.384;7.122;2023-03-14T11:33:56;2.50;;;1.50;;
2638;SDS011;1329;51.384;7.122;2023-03-14T11:36:36;2.60;;;1.90;;
2638;SDS011;1329;51.384;7.122;2023-03-14T11:39:11;2.20;;;1.53;;
2638;SDS011;1329;51.384;7.122;2023-03-14T11:41:43;2.63;;;1.40;;
2638;SDS011;1329;51.384;7.122;2023-03-14T11:44:17;1.60;;;1.30;;
2638;SDS011;1329;51.384;7.122;2023-03-14T11:46:50;1.00;;;0.87;;
2638;SDS011;1329;51.384;7.122;2023-03-14T11:49:25;1.83;;;0.93;;
2638;SDS011;1329;51.384;7.122;2023-03-14T11:52:03;2.30;;;1.00;;
2638;SDS011;1329;51.384;7.122;2023-03-14T11:54:42;1.37;;;1.20;;
2638;SDS011;1329;51.384;7.122;2023-03-14T11:57:17;1.53;;;1.30;;
2638;SDS011;1329;51.384;7.122;2023-03-14T11:59:48;2.20;;;1.40;;
2638;SDS011;1329;51.384;7.122;2023-03-14T12:02:25;2.40;;;1.80;;
2638;SDS011;1329;51.384;7.122;2023-03-14T12:05:22;2.43;;;1.40;;
2638;SDS011;1329;51.384;7.122;2023-03-14T12:08:20;1.23;;;1.13;;
2638;SDS011;1329;51.384;7.122;2023-03-14T12:11:13;1.97;;;1.30;;
2638;SDS011;1329;51.384;7.122;2023-03-14T12:13:48;1.93;;;1.30;;
2638;SDS011;1329;51.384;7.122;2023-03-14T12:19:24;1.77;;;1.30;;
2638;SDS011;1329;51.384;7.122;2023-03-14T12:22:06;3.23;;;1.50;;
2638;SDS011;1329;51.384;7.122;2023-03-14T12:24:55;3.40;;;1.60;;
2638;SDS011;1329;51.384;7.122;2023-03-14T12:27:40;2.97;;;1.40;;
2638;SDS011;1329;51.384;7.122;2023-03-14T12:30:46;3.50;;;2.07;;
2638;SDS011;1329;51.384;7.122;2023-03-14T12:33:28;4.93;;;1.67;;
2638;SDS011;1329;51.384;7.122;2023-03-14T12:36:10;3.20;;;1.43;;
2638;SDS011;1329;51.384;7.122;2023-03-14T12:39:17;3.63;;;1.57;;
2638;SDS011;1329;51.384;7.122;2023-03-14T12:41:52;3.60;;;1.57;;
2638;SDS011;1329;51.384;7.122;2023-03-14T12:44:39;5.07;;;1.70;;
2638;SDS011;1329;51.384;7.122;2023-03-14T12:50:24;4.47;;;1.27;;
2638;SDS011;1329;51.384;7.122;2023-03-14T12:59:33;2.63;;;1.30;;
2638;SDS011;1329;51.384;7.122;2023-03-14T13:02:13;4.73;;;1.77;;
2638;SDS011;1329;51.384;7.122;2023-03-14T13:05:02;3.10;;;1.60;;
2638;SDS011;1329;51.384;7.122;2023-03-14T13:07:39;3.10;;;1.40;;
2638;SDS011;1329;51.384;7.122;2023-03-14T13:10:42;4.97;;;1.70;;
2638;SDS011;1329;51.384;7.122;2023-03-14T13:13:29;4.50;;;1.30;;
2638;SDS011;1329;51.384;7.122;2023-03-14T13:16:02;6.50;;;1.67;;
2638;SDS011;1329;51.384;7.122;2023-03-14T13:18:34;7.57;;;2.00;;
2638;SDS011;1329;51.384;7.122;2023-03-14T13:21:05;5.17;;;1.80;;
2638;SDS011;1329;51.384;7.122;2023-03-14T13:23:43;5.40;;;1.80;;
2638;SDS011;1329;51.384;7.122;2023-03-14T13:26:32;5.33;;;1.83;;
2638;SDS011;1329;51.384;7.122;2023-03-14T13:29:19;10.67;;;2.33;;
2638;SDS011;1329;51.384;7.122;2023-03-14T13:31:55;8.33;;;2.50;;
2638;SDS011;1329;51.384;7.122;2023-03-14T13:34:27;6.10;;;2.20;;
2638;SDS011;1329;51.384;7.122;2023-03-14T13:36:59;7.27;;;2.13;;
2638;SDS011;1329;51.384;7.122;2023-03-14T13:39:31;9.20;;;2.60;;
2638;SDS011;1329;51.384;7.122;2023-03-14T13:42:02;8.07;;;2.57;;
2638;SDS011;1329;51.384;7.122;2023-03-14T13:44:33;8.27;;;2.87;;
2638;SDS011;1329;51.384;7.122;2023-03-14T13:47:04;13.40;;;2.77;;
2638;SDS011;1329;51.384;7.122;2023-03-14T13:49:38;8.20;;;2.93;;
2638;SDS011;1329;51.384;7.122;2023-03-14T13:52:21;7.60;;;2.50;;
2638;SDS011;1329;51.384;7.122;2023-03-14T13:54:52;8.47;;;2.83;;
2638;SDS011;1329;51.384;7.122;2023-03-14T13:57:21;8.60;;;2.67;;
2638;SDS011;1329;51.384;7.122;2023-03-14T13:59:59;10.43;;;2.60;;
2638;SDS011;1329;51.384;7.122;2023-03-14T14:02:38;12.30;;;3.37;;
2638;SDS011;1329;51.384;7.122;2023-03-14T14:05:09;9.40;;;2.50;;
2638;SDS011;1329;51.384;7.122;2023-03-14T14:07:38;10.67;;;2.70;;
2638;SDS011;1329;51.384;7.122;2023-03-14T14:10:08;12.23;;;3.40;;
2638;SDS011;1329;51.384;7.122;2023-03-14T14:12:39;8.10;;;2.67;;
2638;SDS011;1329;51.384;7.122;2023-03-14T14:15:18;12.17;;;3.03;;
2638;SDS011;1329;51.384;7.122;2023-03-14T14:17:50;12.77;;;3.13;;
2638;SDS011;1329;51.384;7.122;2023-03-14T14:20:28;9.13;;;2.57;;
2638;SDS011;1329;51.384;7.122;2023-03-14T14:23:00;10.67;;;2.53;;
2638;SDS011;1329;51.384;7.122;2023-03-14T14:25:31;11.77;;;3.03;;
2638;SDS011;1329;51.384;7.122;2023-03-14T14:27:59;8.80;;;2.50;;
2638;SDS011;1329;51.384;7.122;2023-03-14T14:30:43;10.20;;;2.43;;
2638;SDS011;1329;51.384;7.122;2023-03-14T14:33:21;7.90;;;2.67;;
2638;SDS011;1329;51.384;7.122;2023-03-14T14:35:52;10.60;;;3.37;;
2638;SDS011;1329;51.384;7.122;2023-03-14T14:38:22;9.37;;;2.77;;
2638;SDS011;1329;51.384;7.122;2023-03-14T14:40:51;11.10;;;3.20;;
2638;SDS011;1329;51.384;7.122;2023-03-14T14:43:23;7.67;;;2.20;;
2638;SDS011;1329;51.384;7.122;2023-03-14T14:45:56;9.03;;;2.10;;
2638;SDS011;1329;51.384;7.122;2023-03-14T14:48:25;7.27;;;2.00;;
2638;SDS011;1329;51.384;7.122;2023-03-14T14:50:55;8.83;;;2.17;;
2638;SDS011;1329;51.384;7.122;2023-03-14T14:53:28;6.37;;;1.90;;
2638;SDS011;1329;51.384;7.122;2023-03-14T14:55:59;6.83;;;2.13;;
2638;SDS011;1329;51.384;7.122;2023-03-14T14:58:34;5.17;;;1.77;;
2638;SDS011;1329;51.384;7.122;2023-03-14T15:01:07;7.13;;;2.23;;
2638;SDS011;1329;51.384;7.122;2023-03-14T15:03:41;6.00;;;1.73;;
2638;SDS011;1329;51.384;7.122;2023-03-14T15:06:12;7.17;;;2.13;;
2638;SDS011;1329;51.384;7.122;2023-03-14T15:08:41;4.97;;;1.77;;
2638;SDS011;1329;51.384;7.122;2023-03-14T15:11:10;4.47;;;1.67;;
2638;SDS011;1329;51.384;7.122;2023-03-14T15:13:44;5.90;;;1.50;;
2638;SDS011;1329;51.384;7.122;2023-03-14T15:16:15;6.50;;;1.73;;
2638;SDS011;1329;51.384;7.122;2023-03-14T15:18:47;5.20;;;1.80;;
2638;SDS011;1329;51.384;7.122;2023-03-14T15:21:24;4.77;;;1.47;;
2638;SDS011;1329;51.384;7.122;2023-03-14T15:23:53;6.10;;;1.90;;
2638;SDS011;1329;51.384;7.122;2023-03-14T15:26:21;6.10;;;1.90;;
2638;SDS011;1329;51.384;7.122;2023-03-14T15:28:51;5.03;;;1.80;;
2638;SDS011;1329;51.384;7.122;2023-03-14T15:31:23;4.97;;;1.67;;
2638;SDS011;1329;51.384;7.122;2023-03-14T15:33:53;7.80;;;1.90;;
2638;SDS011;1329;51.384;7.122;2023-03-14T15:36:23;5.97;;;1.57;;
2638;SDS011;1329;51.384;7.122;2023-03-14T15:38:53;6.80;;;2.23;;
2638;SDS011;1329;51.384;7.122;2023-03-14T15:41:21;6.57;;;1.57;;
2638;SDS011;1329;51.384;7.122;2023-03-14T15:43:49;5.60;;;1.80;;
2638;SDS011;1329;51.384;7.122;2023-03-14T15:46:17;5.73;;;1.87;;
2638;SDS011;1329;51.384;7.122;2023-03-14T15:48:47;5.63;;;1.80;;
2638;SDS011;1329;51.384;7.122;2023-03-14T15:51:15;5.70;;;1.53;;
2638;SDS011;1329;51.384;7.122;2023-03-14T15:53:42;2.57;;;1.30;;
2638;SDS011;1329;51.384;7.122;2023-03-14T15:56:11;7.77;;;2.00;;
2638;SDS011;1329;51.384;7.122;2023-03-14T15:58:39;4.03;;;1.30;;
2638;SDS011;1329;51.384;7.122;2023-03-14T16:01:11;5.00;;;1.37;;
2638;SDS011;1329;51.384;7.122;2023-03-14T16:03:41;4.00;;;1.30;;
2638;SDS011;1329;51.384;7.122;2023-03-14T16:06:27;4.60;;;1.20;;